Time;durP1;ratioP1;P1;durP2;ratioP2;P2;SDS_P1;SDS_P2;PMS_P1;PMS_P2;Temp;Humidity;BMP_temperature;BMP_pressure;BME280_temperature;BME280_humidity;BME280_pressure;Samples;Min_cycle;Max_cycle;Signal;HPM_P1;HPM_P2
2023/04/28 00:01:18;;;;;;;22.77;15.65;;;;;;;3.19;100.00;93309.34;5130711;27;20043;-71
2023/04/28 00:03:48;;;;;;;25.02;16.02;;;;;;;3.16;100.00;93313.94;5131432;27;20054;-71
2023/04/28 00:06:15;;;;;;;30.50;17.27;;;;;;;3.02;100.00;93305.25;5130922;27;20104;-71
2023/04/28 00:08:42;;;;;;;36.72;20.60;;;;;;;3.08;100.00;93312.22;5130640;27;20095;-71
2023/04/28 00:11:09;;;;;;;37.03;21.10;;;;;;;3.06;100.00;93314.13;5130666;27;20055;-71
2023/04/28 00:13:38;;;;;;;39.45;22.33;;;;;;;3.02;100.00;93316.16;5130633;27;20133;-71
2023/04/28 00:16:05;;;;;;;31.05;19.17;;;;;;;3.01;100.00;93318.88;5130048;27;20043;-71
2023/04/28 00:18:32;;;;;;;28.92;16.35;;;;;;;2.87;100.00;93303.34;5130706;27;20050;-71
2023/04/28 00:21:00;;;;;;;31.13;17.17;;;;;;;2.90;100.00;93317.44;5130331;27;20120;-71
2023/04/28 00:23:30;;;;;;;24.42;15.05;;;;;;;2.78;100.00;93296.69;5130801;27;20062;-71
2023/04/28 00:25:56;;;;;;;23.38;13.55;;;;;;;2.92;100.00;93315.56;5130592;27;20042;-71
2023/04/28 00:28:23;;;;;;;20.08;13.07;;;;;;;2.92;100.00;93313.81;5130433;27;20039;-71
2023/04/28 00:30:51;;;;;;;19.70;13.10;;;;;;;2.89;100.00;93315.88;5129959;27;20419;-71
2023/04/28 00:33:18;;;;;;;22.92;13.80;;;;;;;2.85;100.00;93312.06;5130402;27;20047;-71
2023/04/28 00:35:45;;;;;;;20.63;12.68;;;;;;;2.82;100.00;93317.47;5130590;27;20043;-71
2023/04/28 00:38:12;;;;;;;18.95;10.70;;;;;;;2.85;100.00;93315.41;5130027;27;20123;-71
2023/04/28 00:40:39;;;;;;;12.52;8.75;;;;;;;2.73;100.00;93324.28;5130262;27;20043;-71
2023/04/28 00:43:06;;;;;;;18.63;10.15;;;;;;;2.61;100.00;93322.06;5130022;27;20051;-71
2023/04/28 00:45:33;;;;;;;14.52;9.23;;;;;;;2.62;100.00;93328.72;5129783;27;20146;-71
2023/04/28 00:48:02;;;;;;;12.95;8.63;;;;;;;2.66;100.00;93330.00;5130138;27;20360;-71
2023/04/28 00:50:29;;;;;;;15.75;9.40;;;;;;;2.66;100.00;93327.47;5129934;27;20063;-71
2023/04/28 00:52:58;;;;;;;14.52;9.52;;;;;;;2.72;100.00;93331.09;5129923;27;20100;-71
2023/04/28 00:55:26;;;;;;;13.55;8.52;;;;;;;2.70;100.00;93325.41;5109142;28;20089;-71
2023/04/28 00:57:55;;;;;;;11.23;6.80;;;;;;;2.67;100.00;93325.69;5109346;28;20408;-71
2023/04/28 01:00:22;;;;;;;13.88;7.88;;;;;;;2.54;100.00;93332.03;5108302;28;20388;-70
2023/04/28 01:02:50;;;;;;;11.32;7.53;;;;;;;2.55;100.00;93335.38;5109455;28;20040;-70
2023/04/28 01:05:19;;;;;;;13.07;7.80;;;;;;;2.58;100.00;93337.59;5108986;28;20043;-71
2023/04/28 01:07:45;;;;;;;13.05;8.90;;;;;;;2.50;100.00;93335.06;5108831;28;20093;-71
2023/04/28 01:10:12;;;;;;;16.38;9.40;;;;;;;2.42;100.00;93335.03;5109142;28;20411;-71
2023/04/28 01:12:39;;;;;;;17.27;8.93;;;;;;;2.44;100.00;93339.00;5108558;28;20051;-70
2023/04/28 01:15:07;;;;;;;13.98;8.95;;;;;;;2.39;100.00;93346.28;5108739;28;20499;-70
2023/04/28 01:17:34;;;;;;;11.93;7.55;;;;;;;2.34;100.00;93339.13;5108955;28;20058;-71
2023/04/28 01:20:01;;;;;;;16.25;8.57;;;;;;;2.30;100.00;93340.38;5108807;28;20051;-70
2023/04/28 01:22:29;;;;;;;17.40;9.52;;;;;;;2.27;100.00;93341.50;5108659;28;20043;-70
2023/04/28 01:24:59;;;;;;;17.70;8.93;;;;;;;2.24;100.00;93348.63;5108779;28;20453;-70
2023/04/28 01:27:25;;;;;;;18.63;8.57;;;;;;;2.20;100.00;93348.13;5108604;28;20570;-71
2023/04/28 01:29:52;;;;;;;12.07;7.57;;;;;;;2.20;100.00;93339.72;5109000;28;20043;-70
2023/04/28 01:32:19;;;;;;;13.20;7.43;;;;;;;2.17;100.00;93335.75;5108930;28;20502;-70
2023/04/28 01:34:46;;;;;;;14.18;7.32;;;;;;;2.14;100.00;93336.88;5108715;28;20052;-70
2023/04/28 01:37:13;;;;;;;11.07;7.03;;;;;;;1.79;100.00;93293.06;5108520;28;20054;-71
2023/04/28 01:39:39;;;;;;;14.25;7.45;;;;;;;2.07;100.00;93343.50;5108879;28;20469;-70
2023/04/28 01:42:08;;;;;;;12.95;7.60;;;;;;;2.05;100.00;93344.59;5108338;28;20392;-71
2023/04/28 01:44:34;;;;;;;12.25;7.35;;;;;;;2.06;100.00;93341.94;5108448;28;21882;-71
2023/04/28 01:47:01;;;;;;;13.52;7.05;;;;;;;2.06;100.00;93343.66;5108623;28;20557;-71
2023/04/28 01:49:28;;;;;;;13.30;7.35;;;;;;;2.04;100.00;93341.25;5108467;28;20051;-71
2023/04/28 01:51:55;;;;;;;11.23;7.38;;;;;;;2.02;100.00;93344.91;5108735;28;20066;-71
2023/04/28 01:54:22;;;;;;;14.50;6.97;;;;;;;1.94;100.00;93340.63;5120327;27;20498;-71
2023/04/28 01:56:48;;;;;;;11.98;6.97;;;;;;;1.95;100.00;93344.75;5128156;27;20039;-71
2023/04/28 01:59:17;;;;;;;11.82;6.93;;;;;;;1.87;100.00;93337.91;5128857;27;20462;-71
2023/04/28 02:01:44;;;;;;;9.82;6.28;;;;;;;1.86;100.00;93339.63;5128387;27;20055;-72
2023/04/28 02:04:11;;;;;;;9.85;6.70;;;;;;;1.87;100.00;93348.03;5128561;27;20051;-71
2023/04/28 02:06:37;;;;;;;10.30;6.72;;;;;;;1.92;100.00;93348.38;5128872;27;20410;-71
2023/04/28 02:09:04;;;;;;;13.55;7.60;;;;;;;1.87;100.00;93348.81;5128045;27;20050;-71
2023/04/28 02:11:31;;;;;;;11.23;7.10;;;;;;;1.92;100.00;93350.91;5128629;27;20042;-72
2023/04/28 02:13:58;;;;;;;11.82;6.85;;;;;;;1.91;100.00;93354.38;5128203;27;20466;-72
2023/04/28 02:16:26;;;;;;;10.65;7.00;;;;;;;1.89;100.00;93351.19;5128526;27;20039;-72
2023/04/28 02:18:52;;;;;;;10.55;6.07;;;;;;;1.86;100.00;93352.28;5128858;27;20046;-72
2023/04/28 02:21:19;;;;;;;10.52;6.05;;;;;;;1.87;100.00;93353.09;5128225;27;20055;-72
2023/04/28 02:23:46;;;;;;;7.45;4.80;;;;;;;1.85;100.00;93355.00;5101663;27;20053;-72
2023/04/28 02:26:13;;;;;;;9.02;5.25;;;;;;;1.82;100.00;93355.28;5128227;27;20468;-72
2023/04/28 02:28:40;;;;;;;7.38;4.57;;;;;;;1.81;100.00;93358.78;5128736;27;20748;-72
2023/04/28 02:31:08;;;;;;;7.20;4.43;;;;;;;1.79;100.00;93365.72;5127865;27;20047;-72
2023/04/28 02:33:36;;;;;;;7.60;4.65;;;;;;;1.58;100.00;93334.75;5128295;28;20051;-73
2023/04/28 02:36:04;;;;;;;7.82;4.60;;;;;;;1.70;100.00;93364.88;5113026;28;20096;-72
2023/04/28 02:38:31;;;;;;;7.57;4.80;;;;;;;1.72;100.00;93363.03;5116114;28;20048;-73
2023/04/28 02:40:59;;;;;;;6.80;3.90;;;;;;;1.71;100.00;93372.34;5127567;28;20054;-73
2023/04/28 02:43:26;;;;;;;6.20;3.75;;;;;;;1.67;100.00;93370.28;5128232;28;20134;-73
2023/04/28 02:45:53;;;;;;;4.28;3.15;;;;;;;1.59;100.00;93376.84;5128098;28;20044;-74
2023/04/28 02:48:20;;;;;;;5.53;4.22;;;;;;;1.49;100.00;93368.59;5128115;28;20055;-72
2023/04/28 02:50:48;;;;;;;4.90;3.22;;;;;;;1.53;100.00;93361.50;5127559;28;20039;-72
2023/04/28 02:53:15;;;;;;;7.43;3.72;;;;;;;1.61;100.00;93381.78;5127624;28;20044;-73
2023/04/28 02:55:41;;;;;;;8.63;4.15;;;;;;;1.63;100.00;93382.44;5127483;28;20155;-72
2023/04/28 02:58:08;;;;;;;6.78;4.43;;;;;;;1.59;100.00;93383.69;5127799;28;20047;-73
2023/04/28 03:00:35;;;;;;;6.93;3.50;;;;;;;1.48;100.00;93394.06;5127777;28;20090;-73
2023/04/28 03:03:02;;;;;;;7.45;4.35;;;;;;;1.47;100.00;93390.72;5127457;28;20088;-73
2023/04/28 03:05:29;;;;;;;6.03;4.47;;;;;;;1.49;100.00;93390.56;5127753;28;20046;-73
2023/04/28 03:07:58;;;;;;;5.95;4.32;;;;;;;1.42;100.00;93392.91;5128163;28;20135;-73
2023/04/28 03:10:24;;;;;;;11.63;5.78;;;;;;;1.37;100.00;93392.56;5127183;28;20054;-73
2023/04/28 03:12:51;;;;;;;8.60;5.50;;;;;;;1.38;100.00;93389.09;5127702;28;20054;-73
2023/04/28 03:15:18;;;;;;;12.48;6.32;;;;;;;1.32;100.00;93395.53;5127487;28;20070;-73
2023/04/28 03:17:45;;;;;;;9.50;5.97;;;;;;;1.35;100.00;93394.44;5127812;28;20050;-73
2023/04/28 03:20:12;;;;;;;14.68;7.03;;;;;;;1.32;100.00;93398.06;5128351;27;20050;-73
2023/04/28 03:22:39;;;;;;;9.82;6.70;;;;;;;1.26;100.00;93404.53;5131474;27;20130;-73
2023/04/28 03:25:08;;;;;;;10.65;6.40;;;;;;;1.31;100.00;93407.38;5130986;27;20518;-73
2023/04/28 03:27:35;;;;;;;10.05;6.68;;;;;;;1.31;100.00;93412.44;5130834;27;20091;-73
2023/04/28 03:30:02;;;;;;;11.13;7.07;;;;;;;1.31;100.00;93416.72;5125415;27;20051;-73
2023/04/28 03:32:29;;;;;;;15.68;8.65;;;;;;;1.39;100.00;93421.84;5110732;28;20058;-73
2023/04/28 03:34:56;;;;;;;16.23;8.32;;;;;;;1.38;100.00;93427.84;5130396;27;20035;-73
2023/04/28 03:37:22;;;;;;;14.35;8.35;;;;;;;1.17;100.00;93430.72;5131084;27;20052;-73
2023/04/28 03:39:49;;;;;;;13.20;8.43;;;;;;;1.20;100.00;93430.41;5130723;27;20039;-73
2023/04/28 03:42:17;;;;;;;17.67;9.40;;;;;;;1.17;100.00;93436.53;5131449;27;20152;-73
2023/04/28 03:44:44;;;;;;;14.70;10.13;;;;;;;1.15;100.00;93440.19;5103851;27;20054;-73
2023/04/28 03:47:11;;;;;;;11.05;7.00;;;;;;;1.18;100.00;93448.28;5131113;27;20046;-73
2023/04/28 03:49:37;;;;;;;14.32;7.57;;;;;;;1.19;100.00;93447.34;5130933;27;20499;-73
2023/04/28 03:52:04;;;;;;;14.35;7.60;;;;;;;1.20;100.00;93448.91;5130890;27;20047;-73
2023/04/28 03:54:31;;;;;;;14.35;8.38;;;;;;;1.23;100.00;93449.56;5131176;27;20474;-73
2023/04/28 03:56:58;;;;;;;13.68;7.93;;;;;;;1.24;100.00;93441.81;5130922;27;20047;-73
2023/04/28 03:59:26;;;;;;;23.40;11.88;;;;;;;1.24;100.00;93429.16;5130569;27;20050;-73
2023/04/28 04:01:53;;;;;;;14.90;9.85;;;;;;;1.40;100.00;93448.75;5131251;27;20058;-73
2023/04/28 04:04:20;;;;;;;13.77;8.07;;;;;;;1.38;100.00;93445.56;5130609;27;20043;-73
2023/04/28 04:06:46;;;;;;;13.48;9.18;;;;;;;1.41;100.00;93444.47;5130519;27;20498;-73
2023/04/28 04:09:14;;;;;;;15.30;9.30;;;;;;;1.43;100.00;93450.19;5130647;27;20050;-73
2023/04/28 04:11:40;;;;;;;14.07;8.90;;;;;;;1.44;100.00;93454.31;5130514;27;20452;-73
2023/04/28 04:14:07;;;;;;;24.27;12.80;;;;;;;1.47;100.00;93456.53;5130374;27;20056;-73
2023/04/28 04:16:36;;;;;;;25.73;13.98;;;;;;;1.51;100.00;93454.50;5130620;27;20043;-73
2023/04/28 04:19:03;;;;;;;25.02;12.98;;;;;;;1.54;100.00;93452.50;5130174;27;20051;-73
2023/04/28 04:21:30;;;;;;;25.98;13.82;;;;;;;1.58;100.00;93460.59;5130196;27;20078;-73
2023/04/28 04:23:57;;;;;;;26.60;13.98;;;;;;;1.58;100.00;93468.19;5130695;27;20457;-73
2023/04/28 04:26:24;;;;;;;24.90;13.30;;;;;;;1.64;100.00;93464.25;5130145;27;20043;-73
2023/04/28 04:28:50;;;;;;;23.27;13.73;;;;;;;1.69;100.00;93462.88;5130360;27;20043;-73
2023/04/28 04:31:18;;;;;;;21.67;12.93;;;;;;;1.76;100.00;93465.59;5129388;27;20039;-73
2023/04/28 04:33:46;;;;;;;20.88;12.80;;;;;;;1.87;100.00;93464.56;5130175;27;20047;-73
2023/04/28 04:36:13;;;;;;;23.65;13.43;;;;;;;1.90;100.00;93463.47;5130070;27;20035;-73
2023/04/28 04:38:40;;;;;;;21.58;11.93;;;;;;;1.96;100.00;93468.72;5129765;27;20624;-73
2023/04/28 04:41:06;;;;;;;22.95;11.55;;;;;;;2.05;100.00;93468.75;5129954;27;20088;-73
2023/04/28 04:43:33;;;;;;;16.08;11.45;;;;;;;2.05;100.00;93468.75;5130175;27;20055;-73
2023/04/28 04:46:02;;;;;;;22.98;12.85;;;;;;;2.14;100.00;93472.94;5129759;27;20108;-73
2023/04/28 04:48:29;;;;;;;20.95;11.48;;;;;;;2.22;100.00;93478.03;5129986;27;20058;-73
2023/04/28 04:50:57;;;;;;;22.17;11.80;;;;;;;2.16;100.00;93462.66;5129383;27;20471;-72
2023/04/28 04:53:24;;;;;;;19.30;11.80;;;;;;;2.45;100.00;93482.56;5129550;27;20100;-72
2023/04/28 04:55:51;;;;;;;18.10;12.38;;;;;;;2.54;100.00;93480.84;5129686;27;20557;-72
2023/04/28 04:58:18;;;;;;;24.35;11.73;;;;;;;2.60;100.00;93485.31;5130036;27;20047;-72
2023/04/28 05:00:44;;;;;;;21.52;13.27;;;;;;;2.73;100.00;93494.25;5129452;27;20039;-72
2023/04/28 05:03:11;;;;;;;22.10;13.32;;;;;;;2.84;100.00;93488.06;5129641;27;20050;-71
2023/04/28 05:05:38;;;;;;;20.23;13.00;;;;;;;2.92;100.00;93486.34;5129194;27;20051;-71
2023/04/28 05:08:07;;;;;;;23.42;13.07;;;;;;;3.17;100.00;93494.00;5129942;27;20046;-71
2023/04/28 05:10:33;;;;;;;20.90;12.75;;;;;;;3.16;100.00;93459.41;5129249;27;20035;-71
2023/04/28 05:13:00;;;;;;;21.20;12.23;;;;;;;3.55;100.00;93491.00;5129418;27;20066;-72
2023/04/28 05:15:27;;;;;;;22.08;12.95;;;;;;;3.67;100.00;93478.78;5129552;27;20062;-71
2023/04/28 05:17:54;;;;;;;23.48;13.38;;;;;;;3.87;100.00;93491.94;5129853;27;20488;-71
2023/04/28 05:20:20;;;;;;;21.27;11.43;;;;;;;4.05;99.98;93492.69;5128311;27;20047;-71
2023/04/28 05:22:47;;;;;;;22.67;11.95;;;;;;;4.18;96.39;93493.00;5129363;27;20050;-71
2023/04/28 05:25:15;;;;;;;18.88;10.82;;;;;;;4.29;97.92;93491.84;5129049;27;20047;-71
2023/04/28 05:27:42;;;;;;;9.70;5.35;;;;;;;4.54;91.95;93492.53;5128989;27;20050;-72
2023/04/28 05:30:10;;;;;;;8.90;5.82;;;;;;;4.68;82.33;93493.59;5129045;27;20551;-72
2023/04/28 05:32:37;;;;;;;8.48;5.28;;;;;;;4.83;84.23;93490.38;5128779;27;20043;-71
2023/04/28 05:35:05;;;;;;;6.60;3.97;;;;;;;5.07;81.61;93491.19;5127904;27;20047;-72
2023/04/28 05:37:31;;;;;;;7.38;4.05;;;;;;;5.34;75.98;93492.44;5128955;27;20053;-72
2023/04/28 05:39:58;;;;;;;9.10;4.55;;;;;;;5.39;73.42;93498.78;5128870;27;20100;-72
2023/04/28 05:42:26;;;;;;;10.95;4.55;;;;;;;5.34;75.46;93494.19;5127756;27;20047;-72
2023/04/28 05:44:53;;;;;;;8.50;3.65;;;;;;;5.68;77.16;93492.19;5128575;27;20035;-72
2023/04/28 05:47:20;;;;;;;8.82;3.90;;;;;;;6.00;77.66;93491.13;5128423;27;20058;-72
2023/04/28 05:49:46;;;;;;;8.95;3.83;;;;;;;6.22;71.19;93490.44;5128368;27;20035;-72
2023/04/28 05:52:13;;;;;;;6.45;3.83;;;;;;;6.46;68.80;93497.06;5128467;27;20042;-72
2023/04/28 05:54:40;;;;;;;8.90;3.33;;;;;;;6.44;67.50;93500.75;5098586;27;20435;-72
2023/04/28 05:57:07;;;;;;;9.48;3.80;;;;;;;6.36;66.69;93504.19;5107126;28;20419;-72
2023/04/28 05:59:35;;;;;;;7.80;3.47;;;;;;;6.39;66.10;93503.84;5108378;28;20084;-72
2023/04/28 06:02:02;;;;;;;9.45;4.00;;;;;;;6.81;68.58;93499.03;5097381;28;20066;-72
2023/04/28 06:04:29;;;;;;;8.23;3.35;;;;;;;7.06;65.75;93498.72;5107283;28;20047;-72
2023/04/28 06:06:56;;;;;;;7.72;3.42;;;;;;;6.85;62.92;93494.38;5107503;28;20047;-72
2023/04/28 06:09:22;;;;;;;9.13;3.65;;;;;;;6.79;63.12;93496.66;5107840;28;20085;-72
2023/04/28 06:11:49;;;;;;;8.77;3.97;;;;;;;6.66;64.90;93499.03;5107215;28;20115;-72
2023/04/28 06:14:16;;;;;;;11.80;4.20;;;;;;;7.20;67.80;93491.97;5107779;28;20051;-73
2023/04/28 06:16:44;;;;;;;9.13;4.00;;;;;;;7.59;63.48;93489.97;5107270;28;20051;-72
2023/04/28 06:19:13;;;;;;;12.27;4.60;;;;;;;7.70;63.28;93498.91;5106865;28;20047;-72
2023/04/28 06:21:40;;;;;;;7.05;3.47;;;;;;;7.45;61.63;93486.53;5107550;28;20515;-72
2023/04/28 06:24:07;;;;;;;8.70;3.45;;;;;;;7.97;63.78;93491.44;5098411;28;20051;-73
2023/04/28 06:26:33;;;;;;;11.45;3.67;;;;;;;8.06;62.97;93489.53;5103566;28;20528;-72
2023/04/28 06:29:00;;;;;;;8.52;3.47;;;;;;;8.28;58.82;93482.56;5107443;28;20200;-73
2023/04/28 06:31:27;;;;;;;9.75;3.55;;;;;;;8.52;61.11;93483.91;5107386;28;20050;-73
2023/04/28 06:33:55;;;;;;;14.43;4.60;;;;;;;8.79;58.34;93490.91;5107579;28;20127;-73
2023/04/28 06:36:22;;;;;;;7.63;3.22;;;;;;;9.06;60.88;93494.38;5107057;28;20044;-72
2023/04/28 06:38:49;;;;;;;10.15;3.42;;;;;;;9.09;54.79;93493.19;5107726;28;20051;-72
2023/04/28 06:41:15;;;;;;;10.13;4.38;;;;;;;8.40;56.59;93488.75;5094227;28;20092;-72
2023/04/28 06:43:42;;;;;;;10.57;3.10;;;;;;;8.85;56.74;93487.63;5107133;28;20043;-72
2023/04/28 06:46:10;;;;;;;7.57;3.13;;;;;;;9.05;58.60;93476.63;5107539;28;20412;-72
2023/04/28 06:48:36;;;;;;;10.15;4.00;;;;;;;9.45;58.88;93491.31;5107287;28;20494;-72
2023/04/28 06:51:05;;;;;;;11.13;3.63;;;;;;;9.93;57.96;93490.34;5107214;28;20044;-72
2023/04/28 06:53:32;;;;;;;7.50;3.42;;;;;;;9.75;55.57;93489.16;5094622;27;20063;-72
2023/04/28 06:55:59;;;;;;;10.30;3.30;;;;;;;9.72;55.00;93499.78;5131888;27;20054;-73
2023/04/28 06:58:25;;;;;;;8.95;3.13;;;;;;;10.12;57.65;93483.59;5132346;27;20043;-73
2023/04/28 07:00:52;;;;;;;7.47;3.17;;;;;;;10.51;56.79;93488.09;5131472;27;20044;-73
2023/04/28 07:03:19;;;;;;;6.68;2.60;;;;;;;10.86;54.09;93474.13;5132420;27;20051;-73
2023/04/28 07:05:46;;;;;;;6.57;2.90;;;;;;;10.74;56.95;93486.84;5131573;27;20039;-73
2023/04/28 07:08:14;;;;;;;6.95;2.63;;;;;;;11.12;55.71;93486.09;5132122;27;20050;-73
2023/04/28 07:10:41;;;;;;;4.03;2.28;;;;;;;11.21;51.60;93484.06;5131103;27;20039;-73
2023/04/28 07:13:07;;;;;;;7.07;2.63;;;;;;;10.01;53.23;93494.47;5131911;27;20047;-73
2023/04/28 07:15:34;;;;;;;5.32;2.47;;;;;;;9.60;54.54;93497.03;5131083;27;20039;-73
2023/04/28 07:18:01;;;;;;;6.00;2.80;;;;;;;9.42;52.99;93489.91;5118610;27;20097;-73
2023/04/28 07:20:28;;;;;;;6.55;2.40;;;;;;;9.20;55.19;93486.69;5131291;27;21012;-73
2023/04/28 07:22:54;;;;;;;5.25;2.42;;;;;;;9.53;53.75;93482.63;5131493;27;20441;-73
2023/04/28 07:25:23;;;;;;;5.13;2.28;;;;;;;9.91;53.21;93486.38;5131711;27;20047;-73
2023/04/28 07:27:50;;;;;;;6.55;2.70;;;;;;;9.58;55.84;93488.75;5131346;27;20055;-73
2023/04/28 07:30:16;;;;;;;6.38;2.78;;;;;;;9.19;52.77;93491.06;5123792;27;20047;-72
2023/04/28 07:32:43;;;;;;;5.25;2.53;;;;;;;9.52;55.88;93489.53;5125141;27;20058;-73
2023/04/28 07:35:10;;;;;;;4.88;2.50;;;;;;;10.23;57.52;93473.72;5131752;27;20082;-73
2023/04/28 07:37:37;;;;;;;4.88;2.65;;;;;;;10.68;53.89;93484.09;5131050;27;20047;-73
2023/04/28 07:40:05;;;;;;;6.93;3.08;;;;;;;11.15;55.02;93475.38;5131257;27;20092;-73
2023/04/28 07:42:34;;;;;;;9.15;2.85;;;;;;;11.61;52.41;93476.09;5130606;27;20047;-73
2023/04/28 07:45:00;;;;;;;4.63;2.55;;;;;;;11.31;51.58;93478.47;5131057;27;20128;-73
2023/04/28 07:47:28;;;;;;;5.10;2.10;;;;;;;11.39;50.08;93478.19;5130873;27;20047;-73
2023/04/28 07:49:54;;;;;;;7.18;2.20;;;;;;;11.76;49.96;93469.84;5131125;27;20043;-73
2023/04/28 07:52:22;;;;;;;4.00;1.95;;;;;;;11.89;49.69;93474.88;5130962;27;20054;-73
2023/04/28 07:54:48;;;;;;;9.55;3.33;;;;;;;12.44;50.89;93470.03;5130947;27;21139;-73
2023/04/28 07:57:15;;;;;;;7.32;2.38;;;;;;;11.66;47.06;93484.97;5130432;27;20043;-73
2023/04/28 07:59:43;;;;;;;5.05;2.60;;;;;;;11.73;48.53;93478.78;5130262;27;20514;-73
2023/04/28 08:02:12;;;;;;;9.00;2.40;;;;;;;12.11;51.02;93464.22;5130774;27;20051;-73
2023/04/28 08:04:39;;;;;;;3.38;1.67;;;;;;;12.56;48.80;93475.28;5130881;27;20043;-73
2023/04/28 08:07:06;;;;;;;12.45;8.10;;;;;;;12.10;45.67;93477.31;5129909;27;20071;-73
2023/04/28 08:09:33;;;;;;;7.18;2.60;;;;;;;12.45;49.30;93474.19;5130470;27;20043;-73
2023/04/28 08:12:00;;;;;;;9.30;2.55;;;;;;;13.03;51.22;93472.16;5130283;27;20403;-71
2023/04/28 08:14:27;;;;;;;7.60;2.45;;;;;;;13.28;49.26;93471.22;5130081;27;20065;-71
2023/04/28 08:16:56;;;;;;;8.25;2.17;;;;;;;13.54;47.20;93466.72;5130608;27;20171;-71
2023/04/28 08:19:23;;;;;;;10.40;4.38;;;;;;;13.96;48.67;93470.25;5130743;27;20058;-71
2023/04/28 08:21:50;;;;;;;6.00;2.20;;;;;;;14.25;46.18;93472.94;5130404;27;20539;-71
2023/04/28 08:24:17;;;;;;;5.80;1.92;;;;;;;14.32;45.85;93476.22;5130289;27;20098;-71
2023/04/28 08:26:44;;;;;;;4.88;1.50;;;;;;;14.35;45.59;93474.97;5130396;27;20046;-71
2023/04/28 08:29:11;;;;;;;3.75;1.50;;;;;;;14.28;44.48;93480.25;5129859;27;20055;-71
2023/04/28 08:31:38;;;;;;;6.18;1.90;;;;;;;14.50;46.09;93470.13;5129827;27;20878;-71
2023/04/28 08:34:06;;;;;;;4.85;1.73;;;;;;;14.33;43.10;93470.03;5130593;27;20055;-71
2023/04/28 08:36:33;;;;;;;5.85;1.50;;;;;;;14.03;42.87;93476.88;5130083;27;20632;-72
2023/04/28 08:39:02;;;;;;;5.22;1.88;;;;;;;12.85;44.76;93467.00;5130416;27;20051;-71
2023/04/28 08:41:32;;;;;;;3.17;1.40;;;;;;;12.41;43.73;93471.25;5129909;27;20392;-72
2023/04/28 08:43:59;;;;;;;5.68;2.30;;;;;;;12.26;46.76;93465.66;5129322;27;20051;-71
2023/04/28 08:46:27;;;;;;;5.85;3.28;;;;;;;12.11;45.95;93463.44;5129943;27;20050;-71
2023/04/28 08:48:59;;;;;;;4.20;1.85;;;;;;;11.59;45.20;93461.84;5130041;27;20043;-71
2023/04/28 08:51:34;;;;;;;4.38;1.45;;;;;;;11.77;48.05;93464.47;5103571;27;20065;-71
2023/04/28 08:54:04;;;;;;;4.28;2.17;;;;;;;11.27;47.69;93461.84;5129818;27;20184;-71
2023/04/28 08:56:33;;;;;;;4.15;2.00;;;;;;;10.93;48.07;93449.97;5129950;27;20130;-71
2023/04/28 08:59:03;;;;;;;4.68;1.60;;;;;;;11.51;48.90;93465.47;5120964;27;20057;-71
2023/04/28 09:01:30;;;;;;;6.82;2.20;;;;;;;11.72;45.66;93463.53;5129878;27;20046;-71
2023/04/28 09:04:01;;;;;;;5.00;1.42;;;;;;;12.26;48.79;93455.34;5129216;27;20050;-71
2023/04/28 09:06:32;;;;;;;4.60;1.60;;;;;;;13.00;48.09;93456.34;5129516;27;20047;-71
2023/04/28 09:09:23;;;;;;;5.28;1.58;;;;;;;13.65;48.84;93446.34;5129619;27;20070;-72
2023/04/28 09:11:51;;;;;;;4.50;1.70;;;;;;;13.87;44.38;93454.31;5129011;27;20039;-71
2023/04/28 09:14:18;;;;;;;4.43;2.00;;;;;;;14.39;47.46;93443.28;5129113;27;20058;-72
2023/04/28 09:16:45;;;;;;;7.13;2.05;;;;;;;14.81;45.26;93434.56;5128832;27;20047;-72
2023/04/28 09:19:12;;;;;;;4.82;2.00;;;;;;;14.43;41.48;93436.66;5129125;27;20085;-72
2023/04/28 09:21:48;;;;;;;3.78;1.40;;;;;;;12.96;41.86;93448.22;5129105;27;20078;-71
2023/04/28 09:24:27;;;;;;;3.97;2.15;;;;;;;12.93;41.33;93446.09;5129115;27;20047;-71
2023/04/28 09:26:53;;;;;;;5.78;2.00;;;;;;;13.02;44.58;93429.31;5128361;27;20047;-71
2023/04/28 09:29:20;;;;;;;5.28;2.10;;;;;;;12.65;44.13;93435.31;5129209;27;20077;-71
2023/04/28 09:31:47;;;;;;;6.15;2.22;;;;;;;13.25;49.83;93414.94;5128815;27;20380;-71
2023/04/28 09:34:14;;;;;;;4.75;2.13;;;;;;;13.05;42.22;93430.69;5115595;27;20086;-72
2023/04/28 09:36:40;;;;;;;4.10;1.63;;;;;;;12.74;43.24;93435.84;5127525;27;20047;-71
2023/04/28 09:39:09;;;;;;;5.72;1.63;;;;;;;13.05;48.79;93422.94;5129000;27;20054;-71
2023/04/28 09:41:38;;;;;;;4.93;1.77;;;;;;;13.34;46.54;93413.59;5128729;27;20097;-71
2023/04/28 09:44:16;;;;;;;6.55;1.70;;;;;;;13.63;43.85;93413.00;5128785;27;20058;-71
2023/04/28 09:46:43;;;;;;;4.28;2.10;;;;;;;13.35;43.76;93414.38;5104469;27;20050;-71
2023/04/28 09:49:10;;;;;;;6.03;1.85;;;;;;;13.89;45.23;93419.50;5129013;27;20055;-71
2023/04/28 09:51:38;;;;;;;3.30;1.88;;;;;;;14.27;41.16;93414.88;5128958;27;20039;-71
2023/04/28 09:54:05;;;;;;;5.30;1.52;;;;;;;14.38;41.90;93404.75;5128228;27;20053;-71
2023/04/28 09:56:37;;;;;;;4.18;1.67;;;;;;;13.77;43.54;93413.56;5128238;27;20130;-71
2023/04/28 09:59:03;;;;;;;3.17;1.38;;;;;;;12.68;41.04;93419.44;5119949;27;20071;-71
2023/04/28 10:01:35;;;;;;;3.13;1.42;;;;;;;12.62;44.32;93417.72;5128935;27;20051;-71
2023/04/28 10:04:02;;;;;;;4.03;1.67;;;;;;;12.78;41.90;93418.91;5128238;27;20443;-71
2023/04/28 10:06:30;;;;;;;4.47;1.40;;;;;;;12.98;41.59;93415.28;5129136;27;20047;-71
2023/04/28 10:08:59;;;;;;;7.22;1.40;;;;;;;13.54;40.78;93412.53;5128235;27;20051;-71
2023/04/28 10:11:27;;;;;;;2.65;1.30;;;;;;;13.79;43.52;93398.63;5128314;27;20039;-71
2023/04/28 10:13:55;;;;;;;3.47;1.20;;;;;;;14.00;40.85;93392.13;5128231;27;20039;-71
2023/04/28 10:16:22;;;;;;;3.40;1.17;;;;;;;14.25;37.01;93403.19;5128324;27;20051;-71
2023/04/28 10:18:50;;;;;;;5.93;1.83;;;;;;;14.27;40.38;93391.63;5128109;27;20039;-71
2023/04/28 10:21:19;;;;;;;4.03;1.40;;;;;;;14.77;41.81;93383.53;5128511;27;20116;-71
2023/04/28 10:24:03;;;;;;;2.92;1.67;;;;;;;15.21;39.56;93368.25;5100752;27;20050;-71
2023/04/28 10:27:04;;;;;;;4.30;1.45;;;;;;;15.28;43.11;93377.66;5127968;27;20083;-71
2023/04/28 10:29:33;;;;;;;4.65;1.30;;;;;;;15.32;38.88;93376.19;5127813;27;20082;-71
2023/04/28 10:32:18;;;;;;;5.93;1.40;;;;;;;15.85;41.82;93370.72;5128122;27;20050;-71
2023/04/28 10:34:45;;;;;;;6.05;1.95;;;;;;;14.96;39.01;93288.44;5128176;28;20089;-71
2023/04/28 10:37:14;;;;;;;8.13;2.47;;;;;;;15.25;39.37;93376.34;5128170;28;20055;-71
2023/04/28 10:39:41;;;;;;;11.23;2.80;;;;;;;15.77;41.16;93370.13;5127339;28;20051;-71
2023/04/28 10:42:41;;;;;;;8.25;1.70;;;;;;;16.14;37.79;93361.03;5128335;28;20054;-71
2023/04/28 10:45:10;;;;;;;5.55;1.90;;;;;;;16.05;34.91;93351.34;5128174;28;20082;-71
2023/04/28 10:48:03;;;;;;;6.88;2.03;;;;;;;16.28;37.83;93353.69;5127847;28;20108;-71
2023/04/28 10:50:30;;;;;;;5.15;1.65;;;;;;;16.51;39.93;93332.94;5128171;28;20129;-71
2023/04/28 10:52:57;;;;;;;6.22;1.80;;;;;;;16.73;37.84;93339.88;5127807;28;20047;-71
2023/04/28 10:55:35;;;;;;;6.55;1.63;;;;;;;17.06;37.89;93338.94;5127757;28;20065;-71
2023/04/28 10:58:33;;;;;;;6.95;3.20;;;;;;;17.41;37.24;93334.25;5128019;28;20458;-71
2023/04/28 11:01:30;;;;;;;4.57;1.60;;;;;;;17.34;34.64;93347.47;5127938;28;20112;-71
2023/04/28 11:04:02;;;;;;;3.22;1.33;;;;;;;15.91;36.62;93341.28;5127780;28;20130;-71
2023/04/28 11:06:31;;;;;;;3.08;1.20;;;;;;;16.25;36.38;93335.25;5127851;28;20406;-71
2023/04/28 11:09:01;;;;;;;5.65;1.10;;;;;;;15.95;34.16;93329.44;5127247;28;20764;-71
2023/04/28 11:11:28;;;;;;;3.33;1.50;;;;;;;15.02;36.62;93331.47;5127843;28;20105;-71
2023/04/28 11:14:15;;;;;;;3.78;1.40;;;;;;;15.43;37.55;93333.13;5127538;28;20043;-71
2023/04/28 11:16:50;;;;;;;4.15;1.73;;;;;;;15.97;38.47;93326.63;5127202;28;20054;-71
2023/04/28 11:19:19;;;;;;;5.80;1.85;;;;;;;15.84;35.72;93317.38;5127907;28;20054;-71
2023/04/28 11:21:47;;;;;;;3.17;1.38;;;;;;;16.15;35.93;93299.63;5127383;28;20634;-71
2023/04/28 11:24:14;;;;;;;4.32;1.25;;;;;;;16.82;40.58;93308.06;5127993;28;20051;-71
2023/04/28 11:26:41;;;;;;;4.75;1.50;;;;;;;17.09;36.00;93312.47;5127095;28;20214;-71
2023/04/28 11:29:08;;;;;;;3.92;1.60;;;;;;;16.91;32.72;93308.44;5128021;28;20427;-71
2023/04/28 11:31:35;;;;;;;4.40;1.50;;;;;;;16.82;35.47;93291.75;5127214;28;20078;-71
2023/04/28 11:34:06;;;;;;;4.03;1.40;;;;;;;17.04;32.96;93301.28;5127569;28;20427;-71